createdAt,value
2023-03-12T00:00:11.974Z,7.94
2023-03-12T00:01:19.860Z,7.87
2023-03-12T00:02:22.379Z,7.87
2023-03-12T00:03:24.186Z,7.86
2023-03-12T00:04:26.929Z,7.87
2023-03-12T00:05:28.783Z,7.92
2023-03-12T00:06:30.614Z,7.90
2023-03-12T00:07:32.760Z,7.93
2023-03-12T00:08:34.478Z,7.90
2023-03-12T00:09:38.212Z,7.88
2023-03-12T00:10:41.263Z,7.95
2023-03-12T00:11:43.076Z,7.91
2023-03-12T00:12:44.792Z,7.95
2023-03-12T00:13:53.328Z,7.92
2023-03-12T00:14:55.031Z,7.96
2023-03-12T00:15:56.864Z,7.96
2023-03-12T00:16:58.754Z,7.94
2023-03-12T00:18:00.488Z,7.97
2023-03-12T00:19:02.961Z,7.86
2023-03-12T00:20:08.594Z,7.94
2023-03-12T00:21:10.869Z,7.95
2023-03-12T00:22:12.598Z,7.92
2023-03-12T00:23:14.292Z,7.87
2023-03-12T00:24:16.830Z,7.89
2023-03-12T00:25:18.624Z,7.87
2023-03-12T00:26:21.934Z,7.90
2023-03-12T00:27:24.914Z,7.85
2023-03-12T00:28:26.666Z,7.61
2023-03-12T00:29:28.384Z,7.75
2023-03-12T00:30:30.753Z,7.68
2023-03-12T00:31:33.896Z,7.59
2023-03-12T00:32:36.055Z,7.61
2023-03-12T00:33:37.794Z,7.55
2023-03-12T00:34:39.551Z,7.40
2023-03-12T00:35:41.314Z,7.36
2023-03-12T00:36:43.095Z,7.29
2023-03-12T00:37:44.824Z,7.20
2023-03-12T00:38:46.633Z,7.17
2023-03-12T00:39:48.473Z,7.17
2023-03-12T00:40:50.225Z,7.04
2023-03-12T00:41:51.947Z,7.03
2023-03-12T00:42:53.642Z,6.94
2023-03-12T00:43:55.385Z,6.92
2023-03-12T00:44:57.156Z,6.86
2023-03-12T00:45:58.902Z,6.90
2023-03-12T00:47:00.712Z,6.89
2023-03-12T00:48:02.610Z,6.89
2023-03-12T00:49:04.374Z,6.82
2023-03-12T00:50:06.435Z,6.82
2023-03-12T00:51:09.356Z,6.79
2023-03-12T00:52:11.098Z,6.77
2023-03-12T00:53:12.796Z,6.69
2023-03-12T00:54:14.484Z,6.71
2023-03-12T00:55:16.418Z,6.54
2023-03-12T00:56:18.253Z,6.64
2023-03-12T00:57:19.963Z,6.59
2023-03-12T00:58:21.706Z,6.58
2023-03-12T00:59:23.444Z,6.61
2023-03-12T01:00:26.837Z,6.61
2023-03-12T01:01:28.838Z,6.57
2023-03-12T01:02:30.584Z,6.47
2023-03-12T01:03:32.283Z,6.55
2023-03-12T01:04:33.992Z,6.57
2023-03-12T01:05:37.987Z,6.52
2023-03-12T01:06:40.095Z,6.60
2023-03-12T01:07:42.062Z,6.45
2023-03-12T01:08:44.086Z,6.47
2023-03-12T01:09:45.787Z,6.45
2023-03-12T01:10:47.734Z,6.43
2023-03-12T01:11:49.445Z,6.32
2023-03-12T01:12:51.132Z,6.37
2023-03-12T01:13:52.891Z,6.38
2023-03-12T01:14:54.575Z,6.31
2023-03-12T01:15:56.352Z,6.26
2023-03-12T01:16:58.136Z,6.28
2023-03-12T01:17:59.893Z,6.19
2023-03-12T01:19:03.026Z,6.21
2023-03-12T01:20:05.968Z,6.30
2023-03-12T01:21:07.675Z,6.31
2023-03-12T01:22:09.697Z,6.29
2023-03-12T01:23:11.541Z,6.26
2023-03-12T01:24:13.265Z,6.20
2023-03-12T01:25:15.015Z,6.18
2023-03-12T01:26:16.842Z,6.12
2023-03-12T01:27:18.547Z,6.21
2023-03-12T01:28:20.345Z,6.10
2023-03-12T01:29:22.593Z,6.16
2023-03-12T01:30:24.405Z,6.13
2023-03-12T01:31:26.349Z,6.09
2023-03-12T01:32:28.126Z,6.08
2023-03-12T01:33:29.847Z,6.07
2023-03-12T01:34:33.587Z,6.11
2023-03-12T01:35:39.944Z,6.04
2023-03-12T01:36:41.728Z,6.02
2023-03-12T01:37:43.485Z,6.05
2023-03-12T01:38:45.356Z,5.96
2023-03-12T01:39:47.036Z,5.96
2023-03-12T01:40:48.844Z,5.97
2023-03-12T01:41:50.522Z,5.98
2023-03-12T01:42:57.529Z,5.97
2023-03-12T01:44:03.703Z,5.97
2023-03-12T01:45:06.223Z,5.87
2023-03-12T01:46:25.608Z,5.95
2023-03-12T01:47:32.120Z,5.96
2023-03-12T01:48:54.025Z,5.91
2023-03-12T01:49:56.239Z,5.89
2023-03-12T01:50:59.494Z,5.84
2023-03-12T01:52:17.570Z,5.90
2023-03-12T01:53:19.410Z,5.84
2023-03-12T01:54:27.520Z,5.91
2023-03-12T01:55:29.413Z,5.87
2023-03-12T01:56:36.817Z,5.89
2023-03-12T01:57:43.929Z,5.85
2023-03-12T01:58:50.369Z,5.88
2023-03-12T01:59:56.705Z,5.85
2023-03-12T02:00:58.498Z,5.78
2023-03-12T02:02:00.362Z,5.77
2023-03-12T02:03:07.575Z,5.71
2023-03-12T02:04:09.708Z,5.71
2023-03-12T02:05:45.355Z,5.74
2023-03-12T02:06:53.410Z,5.69
2023-03-12T02:07:55.266Z,5.67
2023-03-12T02:08:59.803Z,5.68
2023-03-12T02:10:03.524Z,5.68
2023-03-12T02:11:05.757Z,5.60
2023-03-12T02:12:08.081Z,5.58
2023-03-12T02:13:11.376Z,5.57
2023-03-12T02:14:13.174Z,5.61
2023-03-12T02:15:15.204Z,5.61
2023-03-12T02:16:17.122Z,5.58
2023-03-12T02:17:18.937Z,5.59
2023-03-12T02:18:21.600Z,5.53
2023-03-12T02:19:38.221Z,5.59
2023-03-12T02:20:49.905Z,5.55
2023-03-12T02:21:51.632Z,5.55
2023-03-12T02:23:02.922Z,5.48
2023-03-12T02:24:26.203Z,5.46
2023-03-12T02:25:31.052Z,5.48
2023-03-12T02:26:35.040Z,5.43
2023-03-12T02:27:37.509Z,5.39
2023-03-12T02:28:42.838Z,5.32
2023-03-12T02:29:45.964Z,5.34
2023-03-12T02:30:50.276Z,5.34
2023-03-12T02:31:57.053Z,5.37
2023-03-12T02:33:05.098Z,5.36
2023-03-12T02:34:06.843Z,5.30
2023-03-12T02:35:09.125Z,5.38
2023-03-12T02:36:11.091Z,5.31
2023-03-12T02:37:12.810Z,5.30
2023-03-12T02:38:36.179Z,5.34
2023-03-12T02:39:41.510Z,5.22
2023-03-12T02:40:46.913Z,5.29
2023-03-12T02:41:54.275Z,5.35
2023-03-12T02:42:57.058Z,5.30
2023-03-12T02:44:06.258Z,5.24
2023-03-12T02:45:08.320Z,5.27
2023-03-12T02:46:10.133Z,5.19
2023-03-12T02:47:11.929Z,5.24
2023-03-12T02:48:13.680Z,5.28
2023-03-12T02:49:16.122Z,5.27
2023-03-12T02:50:17.909Z,5.23
2023-03-12T02:51:19.659Z,5.24
2023-03-12T02:52:21.412Z,5.20
2023-03-12T02:53:23.117Z,5.24
2023-03-12T02:54:25.865Z,5.11
2023-03-12T02:55:27.899Z,5.21
2023-03-12T02:56:30.258Z,5.22
2023-03-12T02:57:32.006Z,5.28
2023-03-12T02:58:34.021Z,5.24
2023-03-12T02:59:35.720Z,5.26
2023-03-12T03:00:38.174Z,5.24
2023-03-12T03:01:40.226Z,5.29
2023-03-12T03:02:42.584Z,5.31
2023-03-12T03:03:44.666Z,5.28
2023-03-12T03:04:46.367Z,5.30
2023-03-12T03:05:48.162Z,5.26
2023-03-12T03:06:49.947Z,5.34
2023-03-12T03:07:51.745Z,5.30
2023-03-12T03:08:53.489Z,5.32
2023-03-12T03:09:55.277Z,5.31
2023-03-12T03:10:57.012Z,5.28
2023-03-12T03:11:58.783Z,5.37
2023-03-12T03:13:01.132Z,5.34
2023-03-12T03:14:04.454Z,5.27
2023-03-12T03:15:06.856Z,5.39
2023-03-12T03:16:08.861Z,5.37
2023-03-12T03:17:10.661Z,5.40
2023-03-12T03:18:12.448Z,5.38
2023-03-12T03:19:14.396Z,5.39
2023-03-12T03:20:16.275Z,5.37
2023-03-12T03:21:18.361Z,5.28
2023-03-12T03:22:21.844Z,5.40
2023-03-12T03:23:23.572Z,5.39
2023-03-12T03:24:25.297Z,5.37
2023-03-12T03:25:27.154Z,5.34
2023-03-12T03:26:28.923Z,5.38
2023-03-12T03:27:30.739Z,5.34
2023-03-12T03:28:32.459Z,5.40
2023-03-12T03:29:34.416Z,5.44
2023-03-12T03:30:36.224Z,5.32
2023-03-12T03:31:37.979Z,5.46
2023-03-12T03:32:39.839Z,5.45
2023-03-12T03:33:42.182Z,5.46
2023-03-12T03:34:43.913Z,5.42
2023-03-12T03:35:45.709Z,5.43
2023-03-12T03:36:47.455Z,5.42
2023-03-12T03:37:49.222Z,5.42
2023-03-12T03:38:50.915Z,5.40
2023-03-12T03:39:52.837Z,5.49
2023-03-12T03:40:55.592Z,5.49
2023-03-12T03:41:57.312Z,5.49
2023-03-12T03:42:59.066Z,5.47
2023-03-12T03:44:00.873Z,5.39
2023-03-12T03:45:03.098Z,5.47
2023-03-12T03:46:06.206Z,5.51
2023-03-12T03:47:07.960Z,5.50
2023-03-12T03:48:09.660Z,5.50
2023-03-12T03:49:11.424Z,5.44
2023-03-12T03:50:13.465Z,5.43
2023-03-12T03:51:15.194Z,5.47
2023-03-12T03:52:17.019Z,5.46
2023-03-12T03:53:19.604Z,5.45
2023-03-12T03:54:21.350Z,5.46
2023-03-12T03:55:23.136Z,5.45
2023-03-12T03:56:24.819Z,5.46
2023-03-12T03:57:27.906Z,5.46
2023-03-12T03:58:29.601Z,5.53
2023-03-12T03:59:31.316Z,5.48
2023-03-12T04:00:33.822Z,5.49
2023-03-12T04:01:37.039Z,5.54
2023-03-12T04:02:39.643Z,5.52
2023-03-12T04:03:41.450Z,5.54
2023-03-12T04:04:43.228Z,5.54
2023-03-12T04:05:45.582Z,5.55
2023-03-12T04:06:47.369Z,5.53
2023-03-12T04:07:49.109Z,5.48
2023-03-12T04:08:51.005Z,5.47
2023-03-12T04:09:52.799Z,5.47
2023-03-12T04:10:54.944Z,5.53
2023-03-12T04:11:56.747Z,5.50
2023-03-12T04:12:58.632Z,5.49
2023-03-12T04:14:00.371Z,5.51
2023-03-12T04:15:02.336Z,5.52
2023-03-12T04:16:04.662Z,5.44
2023-03-12T04:17:06.578Z,5.54
2023-03-12T04:18:08.382Z,5.47
2023-03-12T04:19:10.129Z,5.42
2023-03-12T04:20:12.270Z,5.58
2023-03-12T04:21:15.068Z,5.59
2023-03-12T04:22:16.930Z,5.55
2023-03-12T04:23:18.656Z,5.58
2023-03-12T04:24:20.477Z,5.55
2023-03-12T04:25:22.238Z,5.57
2023-03-12T04:26:24.044Z,5.49
2023-03-12T04:27:26.003Z,5.57
2023-03-12T04:28:27.741Z,5.48
2023-03-12T04:29:29.498Z,5.47
2023-03-12T04:30:31.263Z,5.49
2023-03-12T04:31:33.372Z,5.51
2023-03-12T04:32:35.100Z,5.53
2023-03-12T04:33:38.654Z,5.45
2023-03-12T04:34:40.363Z,5.51
2023-03-12T04:35:51.821Z,5.50
2023-03-12T04:36:53.536Z,5.48
2023-03-12T04:37:55.282Z,5.49
2023-03-12T04:38:57.481Z,5.44
2023-03-12T04:39:59.189Z,5.47
2023-03-12T04:41:02.849Z,5.45
2023-03-12T04:42:04.609Z,5.43
2023-03-12T04:43:06.358Z,5.44
2023-03-12T04:44:08.478Z,5.42
2023-03-12T04:45:11.733Z,5.39
2023-03-12T04:46:14.054Z,5.46
2023-03-12T04:47:15.797Z,5.40
2023-03-12T04:48:17.561Z,5.43
2023-03-12T04:49:19.265Z,5.44
2023-03-12T04:50:21.007Z,5.43
2023-03-12T04:51:22.713Z,5.43
2023-03-12T04:52:24.849Z,5.49
2023-03-12T04:53:26.704Z,5.47
2023-03-12T04:54:28.492Z,5.46
2023-03-12T04:55:30.206Z,5.47
2023-03-12T04:56:31.929Z,5.46
2023-03-12T04:57:33.753Z,5.39
2023-03-12T04:58:36.080Z,5.46
2023-03-12T04:59:37.824Z,5.45
2023-03-12T05:00:40.753Z,5.45
2023-03-12T05:01:43.364Z,5.48
2023-03-12T05:02:45.189Z,5.46
2023-03-12T05:03:47.966Z,5.44
2023-03-12T05:04:49.704Z,5.49
2023-03-12T05:05:51.434Z,5.49
2023-03-12T05:06:53.210Z,5.40
2023-03-12T05:07:54.907Z,5.55
2023-03-12T05:08:56.651Z,5.54
2023-03-12T05:09:58.363Z,5.52
2023-03-12T05:11:00.084Z,5.55
2023-03-12T05:12:01.932Z,5.56
2023-03-12T05:13:04.033Z,5.57
2023-03-12T05:14:05.752Z,5.58
2023-03-12T05:15:08.158Z,5.63
2023-03-12T05:16:11.188Z,5.68
2023-03-12T05:17:13.005Z,5.64
2023-03-12T05:18:14.925Z,5.65
2023-03-12T05:19:16.672Z,5.55
2023-03-12T05:20:18.669Z,5.58
2023-03-12T05:21:22.100Z,5.63
2023-03-12T05:22:23.920Z,5.72
2023-03-12T05:23:25.614Z,5.88
2023-03-12T05:24:27.631Z,6.06
2023-03-12T05:25:29.316Z,6.24
2023-03-12T05:26:33.289Z,6.45
2023-03-12T05:27:37.886Z,6.61
2023-03-12T05:28:39.636Z,6.68
2023-03-12T05:29:41.348Z,6.81
2023-03-12T05:30:43.046Z,6.83
2023-03-12T05:31:45.036Z,6.94
2023-03-12T05:32:46.879Z,7.07
2023-03-12T05:33:51.584Z,7.12
2023-03-12T05:34:54.355Z,7.31
2023-03-12T05:35:56.123Z,7.43
2023-03-12T05:36:58.832Z,7.57
2023-03-12T05:38:00.574Z,7.69
2023-03-12T05:39:02.329Z,7.78
2023-03-12T05:40:05.214Z,7.85
2023-03-12T05:41:07.254Z,7.84
2023-03-12T05:42:09.003Z,7.83
2023-03-12T05:43:10.757Z,7.95
2023-03-12T05:44:16.411Z,8.11
2023-03-12T05:45:19.776Z,8.16
2023-03-12T05:46:21.497Z,8.22
2023-03-12T05:47:23.198Z,8.23
2023-03-12T05:48:24.902Z,8.18
2023-03-12T05:49:26.677Z,8.20
2023-03-12T05:50:28.408Z,8.30
2023-03-12T05:51:30.234Z,8.28
2023-03-12T05:52:31.966Z,8.30
2023-03-12T05:53:33.708Z,8.39
2023-03-12T05:54:35.585Z,8.41
2023-03-12T05:55:39.126Z,8.48
2023-03-12T05:56:40.856Z,8.53
2023-03-12T05:57:42.528Z,8.53
2023-03-12T05:58:44.803Z,8.47
2023-03-12T05:59:46.542Z,8.42
2023-03-12T06:00:48.265Z,8.50
2023-03-12T06:01:50.029Z,8.48
2023-03-12T06:02:51.785Z,8.37
2023-03-12T06:03:53.736Z,8.49
2023-03-12T06:04:55.522Z,8.41
2023-03-12T06:05:57.379Z,8.26
2023-03-12T06:06:59.092Z,8.38
2023-03-12T06:08:01.803Z,8.41
2023-03-12T06:09:05.287Z,8.50
2023-03-12T06:10:07.591Z,8.41
2023-03-12T06:11:09.970Z,8.26
2023-03-12T06:12:11.765Z,8.21
2023-03-12T06:13:13.587Z,8.25
2023-03-12T06:14:15.298Z,8.24
2023-03-12T06:15:17.092Z,8.26
2023-03-12T06:16:24.322Z,8.23
2023-03-12T06:17:26.087Z,8.25
2023-03-12T06:18:27.797Z,8.33
2023-03-12T06:19:29.557Z,8.44
2023-03-12T06:20:31.300Z,8.48
2023-03-12T06:21:35.739Z,8.32
2023-03-12T06:22:37.812Z,8.25
2023-03-12T06:23:40.048Z,8.29
2023-03-12T06:24:42.728Z,8.34
2023-03-12T06:25:45.397Z,8.46
2023-03-12T06:26:47.097Z,8.50
2023-03-12T06:27:48.854Z,8.47
2023-03-12T06:28:51.464Z,8.45
2023-03-12T06:29:53.268Z,8.55
2023-03-12T06:30:56.196Z,8.68
2023-03-12T06:31:57.921Z,8.77
2023-03-12T06:32:59.723Z,8.79
2023-03-12T06:34:01.498Z,8.78
2023-03-12T06:35:04.708Z,8.80
2023-03-12T06:36:08.240Z,8.71
2023-03-12T06:37:10.144Z,8.73
2023-03-12T06:38:11.993Z,8.76
2023-03-12T06:39:13.753Z,8.83
2023-03-12T06:40:15.538Z,8.96
2023-03-12T06:41:19.744Z,8.98
2023-03-12T06:42:22.694Z,8.93
2023-03-12T06:43:25.974Z,9.07
2023-03-12T06:44:27.719Z,9.04
2023-03-12T06:45:29.435Z,9.09
2023-03-12T06:46:31.191Z,9.30
2023-03-12T06:47:32.926Z,9.46
2023-03-12T06:48:36.873Z,9.43
2023-03-12T06:49:39.031Z,9.39
2023-03-12T06:50:40.739Z,9.45
2023-03-12T06:51:42.483Z,9.52
2023-03-12T06:52:44.251Z,9.61
2023-03-12T06:53:46.727Z,9.65
2023-03-12T06:54:48.425Z,9.57
2023-03-12T06:55:51.745Z,9.65
2023-03-12T06:56:53.594Z,9.93
2023-03-12T06:57:55.294Z,9.97
2023-03-12T06:58:57.750Z,10.32
2023-03-12T06:59:59.624Z,10.43
2023-03-12T07:01:01.334Z,10.45
2023-03-12T07:02:03.300Z,10.50
2023-03-12T07:03:05.469Z,10.44
2023-03-12T07:04:07.205Z,10.42
2023-03-12T07:05:09.663Z,10.53
2023-03-12T07:06:20.691Z,10.67
2023-03-12T07:07:22.486Z,10.59
2023-03-12T07:08:26.311Z,10.59
2023-03-12T07:09:28.142Z,10.56
2023-03-12T07:10:29.970Z,10.53
2023-03-12T07:11:32.132Z,10.57
2023-03-12T07:12:33.989Z,10.52
2023-03-12T07:13:35.708Z,10.48
2023-03-12T07:14:37.645Z,10.32
2023-03-12T07:15:39.572Z,10.49
2023-03-12T07:16:41.487Z,10.72
2023-03-12T07:17:43.242Z,10.87
2023-03-12T07:18:45.456Z,10.87
2023-03-12T07:19:49.738Z,11.14
2023-03-12T07:20:52.274Z,11.30
2023-03-12T07:21:53.964Z,11.55
2023-03-12T07:22:55.669Z,11.62
2023-03-12T07:23:57.603Z,11.66
2023-03-12T07:25:00.401Z,11.52
2023-03-12T07:26:04.622Z,11.52
2023-03-12T07:27:06.417Z,11.67
2023-03-12T07:28:08.630Z,11.64
2023-03-12T07:29:10.374Z,11.76
2023-03-12T07:30:12.534Z,11.83
2023-03-12T07:31:14.396Z,11.80
2023-03-12T07:32:16.440Z,11.66
2023-03-12T07:33:20.529Z,11.62
2023-03-12T07:34:22.443Z,11.50
2023-03-12T07:35:24.323Z,11.43
2023-03-12T07:36:26.350Z,11.46
2023-03-12T07:37:28.135Z,11.44
2023-03-12T07:38:29.939Z,11.51
2023-03-12T07:39:31.949Z,11.26
2023-03-12T07:40:34.232Z,11.13
2023-03-12T07:41:37.511Z,11.19
2023-03-12T07:42:39.420Z,11.25
2023-03-12T07:43:41.178Z,11.46
2023-03-12T07:44:42.870Z,11.51
2023-03-12T07:45:44.631Z,11.39
2023-03-12T07:46:47.057Z,11.39
2023-03-12T07:47:49.601Z,11.54
2023-03-12T07:48:51.426Z,11.91
2023-03-12T07:49:54.291Z,11.99
2023-03-12T07:50:56.232Z,11.84
2023-03-12T07:51:59.649Z,12.31
2023-03-12T07:53:01.869Z,12.37
2023-03-12T07:54:03.657Z,12.30
2023-03-12T07:55:05.944Z,12.29
2023-03-12T07:56:08.134Z,12.37
2023-03-12T07:57:10.219Z,12.34
2023-03-12T07:58:13.189Z,12.46
2023-03-12T07:59:15.042Z,12.53
2023-03-12T08:00:18.192Z,12.59
2023-03-12T08:01:19.972Z,12.92
2023-03-12T08:02:21.963Z,13.18
2023-03-12T08:03:24.096Z,13.18
2023-03-12T08:04:26.234Z,13.48
2023-03-12T08:05:28.231Z,13.32
2023-03-12T08:06:30.267Z,13.20
2023-03-12T08:07:35.371Z,13.29
2023-03-12T08:08:38.495Z,13.35
2023-03-12T08:09:40.466Z,13.34
2023-03-12T08:10:42.259Z,13.20
2023-03-12T08:11:44.569Z,13.30
2023-03-12T08:12:46.630Z,13.08
2023-03-12T08:13:48.703Z,13.11
2023-03-12T08:14:50.519Z,13.06
2023-03-12T08:15:54.938Z,12.95
2023-03-12T08:16:56.767Z,13.16
2023-03-12T08:17:58.546Z,13.02
2023-03-12T08:19:00.282Z,13.01
2023-03-12T08:20:02.014Z,12.99
2023-03-12T08:21:04.317Z,13.09
2023-03-12T08:22:07.169Z,13.12
2023-03-12T08:23:08.997Z,13.18
2023-03-12T08:24:10.695Z,12.90
2023-03-12T08:25:12.737Z,12.86
2023-03-12T08:26:14.547Z,12.86
2023-03-12T08:27:16.356Z,12.86
2023-03-12T08:28:19.302Z,12.82
2023-03-12T08:29:21.042Z,12.96
2023-03-12T08:30:22.912Z,13.27
2023-03-12T08:31:24.716Z,13.42
2023-03-12T08:32:26.751Z,13.45
2023-03-12T08:33:28.770Z,13.15
2023-03-12T08:34:30.596Z,13.41
2023-03-12T08:35:32.304Z,13.43
2023-03-12T08:36:34.071Z,13.31
2023-03-12T08:37:36.589Z,13.45
2023-03-12T08:38:38.326Z,13.72
2023-03-12T08:39:40.049Z,13.65
2023-03-12T08:40:41.985Z,13.55
2023-03-12T08:41:43.670Z,13.60
2023-03-12T08:42:45.651Z,13.75
2023-03-12T08:43:47.368Z,13.86
2023-03-12T08:44:49.048Z,13.71
2023-03-12T08:46:02.321Z,13.85
2023-03-12T08:47:04.245Z,13.98
2023-03-12T08:48:07.289Z,14.04
2023-03-12T08:49:09.016Z,14.37
2023-03-12T08:50:13.106Z,14.49
2023-03-12T08:51:16.802Z,14.45
2023-03-12T08:52:18.680Z,14.27
2023-03-12T08:53:20.428Z,14.25
2023-03-12T08:54:22.234Z,14.30
2023-03-12T08:55:24.225Z,14.48
2023-03-12T08:56:25.926Z,14.32
2023-03-12T08:57:29.061Z,14.15
2023-03-12T08:58:31.275Z,14.18
2023-03-12T08:59:32.985Z,14.40
2023-03-12T09:00:34.806Z,14.34
2023-03-12T09:01:36.786Z,14.52
2023-03-12T09:02:38.855Z,14.43
2023-03-12T09:03:43.995Z,14.41
2023-03-12T09:04:48.769Z,14.40
2023-03-12T09:05:51.662Z,14.47
2023-03-12T09:06:53.367Z,14.49
2023-03-12T09:07:55.096Z,14.47
2023-03-12T09:08:56.867Z,14.25
2023-03-12T09:09:58.674Z,14.28
2023-03-12T09:11:02.003Z,14.53
2023-03-12T09:12:04.691Z,14.52
2023-03-12T09:13:07.035Z,14.36
2023-03-12T09:15:31.370Z,14.69
2023-03-12T09:16:33.194Z,14.76
2023-03-12T09:17:34.982Z,14.55
2023-03-12T09:18:38.913Z,14.64
2023-03-12T09:19:41.855Z,14.98
2023-03-12T09:20:43.784Z,15.22
2023-03-12T09:21:45.503Z,15.18
2023-03-12T09:22:47.228Z,15.19
2023-03-12T09:23:49.581Z,14.97
2023-03-12T09:24:51.410Z,15.11
2023-03-12T09:25:53.782Z,15.10
2023-03-12T09:26:55.509Z,15.07
2023-03-12T09:27:57.380Z,14.99
2023-03-12T09:28:59.406Z,15.23
2023-03-12T09:30:01.523Z,15.39
2023-03-12T09:31:04.688Z,15.74
2023-03-12T09:32:06.833Z,15.76
2023-03-12T09:33:08.871Z,15.61
2023-03-12T09:34:10.586Z,15.54
2023-03-12T09:35:14.410Z,15.63
2023-03-12T09:36:16.194Z,15.61
2023-03-12T09:37:17.994Z,15.74
2023-03-12T09:38:19.752Z,16.03
2023-03-12T09:39:22.792Z,15.97
2023-03-12T09:40:29.502Z,15.94
2023-03-12T09:41:35.762Z,15.99
2023-03-12T09:42:47.602Z,15.90
2023-03-12T09:44:18.167Z,15.64
2023-03-12T09:45:26.458Z,15.92
2023-03-12T09:46:37.638Z,16.05
2023-03-12T09:47:46.631Z,16.07
2023-03-12T09:48:49.887Z,16.29
2023-03-12T09:50:17.700Z,15.95
2023-03-12T09:51:28.112Z,15.76
2023-03-12T09:52:35.840Z,15.97
2023-03-12T09:54:00.428Z,16.26
2023-03-12T09:55:15.803Z,16.60
2023-03-12T09:56:19.836Z,16.77
2023-03-12T09:57:26.584Z,16.97
2023-03-12T09:58:32.690Z,16.99
2023-03-12T09:59:35.641Z,16.87
2023-03-12T10:00:37.343Z,17.09
2023-03-12T10:01:48.097Z,17.05
2023-03-12T10:03:09.604Z,16.99
2023-03-12T10:04:20.399Z,16.88
2023-03-12T10:05:48.256Z,16.81
2023-03-12T10:06:58.682Z,16.59
2023-03-12T10:08:26.632Z,16.43
2023-03-12T10:09:40.263Z,16.69
2023-03-12T10:10:55.068Z,16.87
2023-03-12T10:12:07.086Z,16.46
2023-03-12T10:13:22.358Z,16.32
2023-03-12T10:14:37.116Z,16.19
2023-03-12T10:16:10.386Z,16.18
2023-03-12T10:17:21.136Z,16.36
2023-03-12T10:18:32.298Z,16.54
2023-03-12T10:19:42.941Z,16.59
2023-03-12T10:20:53.692Z,16.66
2023-03-12T10:22:45.732Z,16.76
2023-03-12T10:23:53.473Z,16.32
2023-03-12T10:25:28.680Z,15.89
2023-03-12T10:26:42.848Z,15.90
2023-03-12T10:27:45.829Z,15.67
2023-03-12T10:29:02.308Z,15.63
2023-03-12T10:30:16.755Z,15.77
2023-03-12T10:31:35.492Z,16.19
2023-03-12T10:32:37.194Z,16.30
2023-03-12T10:33:57.589Z,16.57
2023-03-12T10:35:04.944Z,16.72
2023-03-12T10:36:17.151Z,16.56
2023-03-12T10:37:27.588Z,16.64
2023-03-12T10:38:30.205Z,16.56
2023-03-12T10:39:32.291Z,16.70
2023-03-12T10:40:36.664Z,16.98
2023-03-12T10:41:38.505Z,16.90
2023-03-12T10:42:40.199Z,16.62
2023-03-12T10:43:42.446Z,16.64
2023-03-12T10:44:46.715Z,16.91
2023-03-12T10:45:56.184Z,17.01
2023-03-12T10:47:28.420Z,17.05
2023-03-12T10:48:30.151Z,17.37
2023-03-12T10:49:35.341Z,17.39
2023-03-12T10:50:39.497Z,17.46
2023-03-12T10:51:58.369Z,17.41
2023-03-12T10:53:29.630Z,17.02
2023-03-12T10:54:40.886Z,17.04
2023-03-12T10:55:42.656Z,16.98
2023-03-12T10:56:51.574Z,17.24
2023-03-12T10:57:54.329Z,17.24
2023-03-12T10:58:56.151Z,17.36
2023-03-12T11:00:12.620Z,17.16
2023-03-12T11:01:25.621Z,17.18
2023-03-12T11:02:33.324Z,17.26
2023-03-12T11:03:35.199Z,17.41
2023-03-12T11:04:37.611Z,17.45
2023-03-12T11:05:51.877Z,17.73
2023-03-12T11:07:12.550Z,17.85
2023-03-12T11:08:27.429Z,17.90
2023-03-12T11:09:29.151Z,17.99
2023-03-12T11:10:46.050Z,17.99
2023-03-12T11:11:49.922Z,17.92
2023-03-12T11:13:03.868Z,18.09
2023-03-12T11:14:23.953Z,18.23
2023-03-12T11:15:31.973Z,18.53
2023-03-12T11:16:33.782Z,18.87
2023-03-12T11:17:35.488Z,19.15
2023-03-12T11:18:38.003Z,19.03
2023-03-12T11:19:40.575Z,19.06
2023-03-12T11:20:42.279Z,18.94
2023-03-12T11:22:00.628Z,18.61
2023-03-12T11:23:31.848Z,18.21
2023-03-12T11:24:33.932Z,18.37
2023-03-12T11:25:35.622Z,18.50
2023-03-12T11:27:20.119Z,18.63
2023-03-12T11:28:27.114Z,18.48
2023-03-12T11:29:31.799Z,18.65
2023-03-12T11:30:38.847Z,18.71
2023-03-12T11:32:12.403Z,18.41
2023-03-12T11:33:14.331Z,18.31
2023-03-12T11:34:27.272Z,18.32
2023-03-12T11:35:57.742Z,18.17
2023-03-12T11:37:21.171Z,18.15
2023-03-12T11:38:48.934Z,18.05
2023-03-12T11:40:15.101Z,18.33
2023-03-12T11:41:36.320Z,18.40
2023-03-12T11:42:40.721Z,18.04
2023-03-12T11:43:57.587Z,17.79
2023-03-12T11:45:15.074Z,17.67
2023-03-12T11:46:41.470Z,17.35
2023-03-12T11:47:58.120Z,17.18
2023-03-12T11:49:22.032Z,17.26
2023-03-12T11:50:42.656Z,17.37
2023-03-12T11:51:50.233Z,17.49
2023-03-12T11:53:10.350Z,17.24
2023-03-12T11:54:17.964Z,17.05
2023-03-12T11:55:36.214Z,16.70
2023-03-12T11:57:01.370Z,16.72
2023-03-12T11:58:03.265Z,16.55
2023-03-12T11:59:19.989Z,16.47
2023-03-12T12:00:31.214Z,16.10
2023-03-12T12:01:42.104Z,15.93
2023-03-12T12:02:44.287Z,16.07
2023-03-12T12:04:09.998Z,16.15
2023-03-12T12:05:23.738Z,16.25
2023-03-12T12:06:48.159Z,16.21
2023-03-12T12:08:11.413Z,16.25
2023-03-12T12:09:47.685Z,16.04
2023-03-12T12:10:52.303Z,16.17
2023-03-12T12:12:22.987Z,16.01
2023-03-12T12:14:00.012Z,15.91
2023-03-12T12:15:26.438Z,15.99
2023-03-12T12:16:47.634Z,15.98
2023-03-12T12:18:11.276Z,16.05
2023-03-12T12:19:42.852Z,15.79
2023-03-12T12:20:53.753Z,15.61
2023-03-12T12:22:28.717Z,15.51
2023-03-12T12:23:45.653Z,15.27
2023-03-12T12:24:53.432Z,15.08
2023-03-12T12:26:01.855Z,14.95
2023-03-12T12:27:06.861Z,14.97
2023-03-12T12:28:36.184Z,14.92
2023-03-12T12:30:16.740Z,15.06
2023-03-12T12:31:44.880Z,15.14
2023-03-12T12:33:17.620Z,15.16
2023-03-12T12:34:46.142Z,15.04
2023-03-12T12:35:48.298Z,14.98
2023-03-12T12:36:57.227Z,14.83
2023-03-12T12:38:07.728Z,14.83
2023-03-12T12:39:34.883Z,14.84
2023-03-12T12:40:44.139Z,14.58
2023-03-12T12:41:51.725Z,14.53
2023-03-12T12:42:56.248Z,14.61
2023-03-12T12:44:03.165Z,14.74
2023-03-12T12:45:07.054Z,14.75
2023-03-12T12:46:15.050Z,14.67
2023-03-12T12:47:22.207Z,14.73
2023-03-12T12:48:44.110Z,14.76
2023-03-12T12:49:50.395Z,14.67
2023-03-12T12:50:54.048Z,14.61
2023-03-12T12:52:01.094Z,14.85
2023-03-12T12:53:21.691Z,14.91
2023-03-12T12:54:52.146Z,15.00
2023-03-12T12:56:14.962Z,14.88
2023-03-12T12:57:45.577Z,14.73
2023-03-12T12:59:10.922Z,14.77
2023-03-12T13:00:40.657Z,14.89
2023-03-12T13:01:43.676Z,14.92
2023-03-12T13:02:50.337Z,15.00
2023-03-12T13:03:57.770Z,15.05
2023-03-12T13:05:00.335Z,15.06
2023-03-12T13:06:05.224Z,14.99
2023-03-12T13:07:13.175Z,14.87
2023-03-12T13:08:33.537Z,14.83
2023-03-12T13:09:39.384Z,14.63
2023-03-12T13:10:52.979Z,14.62
2023-03-12T13:12:42.264Z,14.67
2023-03-12T13:13:45.770Z,14.76
2023-03-12T13:14:48.845Z,14.80
2023-03-12T13:15:50.895Z,14.76
2023-03-12T13:17:07.427Z,14.96
2023-03-12T13:18:25.467Z,15.09
2023-03-12T13:19:27.930Z,14.95
2023-03-12T13:20:39.315Z,15.05
2023-03-12T13:22:01.256Z,14.88
2023-03-12T13:23:05.781Z,14.81
2023-03-12T13:24:29.692Z,14.62
2023-03-12T13:25:56.316Z,14.74
2023-03-12T13:27:02.810Z,14.73
2023-03-12T13:28:26.621Z,14.63
2023-03-12T13:29:34.177Z,14.64
2023-03-12T13:30:35.815Z,14.58
2023-03-12T13:31:39.467Z,14.51
2023-03-12T13:33:04.132Z,14.64
2023-03-12T13:34:29.074Z,14.71
2023-03-12T13:35:36.400Z,14.73
2023-03-12T13:36:38.311Z,14.80
2023-03-12T13:37:51.919Z,14.81
2023-03-12T13:38:59.853Z,14.85
2023-03-12T13:40:02.241Z,14.75
2023-03-12T13:41:05.937Z,14.85
2023-03-12T13:42:36.607Z,15.02
2023-03-12T13:43:38.254Z,15.01
2023-03-12T13:44:40.474Z,15.08
2023-03-12T13:45:49.185Z,15.22
2023-03-12T13:47:28.571Z,15.20
2023-03-12T13:48:31.188Z,15.17
2023-03-12T13:49:46.484Z,15.11
2023-03-12T13:50:58.840Z,15.16
2023-03-12T13:52:18.660Z,15.12
2023-03-12T13:53:28.392Z,14.94
2023-03-12T13:54:33.898Z,14.92
2023-03-12T13:55:37.874Z,14.98
2023-03-12T13:56:39.715Z,14.95
2023-03-12T13:57:54.823Z,15.06
2023-03-12T13:59:18.110Z,15.17
2023-03-12T14:00:19.784Z,15.29
2023-03-12T14:01:26.267Z,15.24
2023-03-12T14:02:36.908Z,15.07
2023-03-12T14:03:48.265Z,15.08
2023-03-12T14:04:50.361Z,15.05
2023-03-12T14:05:52.100Z,15.11
2023-03-12T14:07:07.578Z,15.16
2023-03-12T14:08:24.945Z,15.02
2023-03-12T14:09:56.073Z,14.82
2023-03-12T14:11:16.486Z,14.80
2023-03-12T14:12:33.595Z,14.81
2023-03-12T14:14:13.241Z,14.80
2023-03-12T14:15:28.885Z,14.74
2023-03-12T14:16:43.363Z,14.69
2023-03-12T14:17:45.536Z,14.68
2023-03-12T14:18:49.268Z,14.68
2023-03-12T14:20:31.227Z,14.80
2023-03-12T14:21:35.357Z,14.76
2023-03-12T14:22:39.498Z,14.76
2023-03-12T14:23:49.479Z,14.75
2023-03-12T14:24:58.718Z,14.67